Terminal Aerodrome Forecast
Issued by NWS Twin Cities, MN

Home | Current Version | Previous Version | Text Only | Print | Product List | Glossary Off
Versions: 1 2 3 4 5 6 7 8 9 10 11 12 13

000
FTUS43 KMPX 160520
TAFSTC
TAF
KSTC 160520Z 1606/1706 31015G24KT P6SM SKC
     FM160900 31008KT P6SM SKC
     FM161400 25008KT P6SM SKC
     FM161900 21011G16KT P6SM SKC
     FM162300 19011KT P6SM SKC=

USA.gov is the U.S. government's official web portal to all federal, state and local government web resources and services.